Time;durP1;ratioP1;P1;durP2;ratioP2;P2;SDS_P1;SDS_P2;PMS_P1;PMS_P2;Temp;Humidity;BMP_temperature;BMP_pressure;BME280_temperature;BME280_humidity;BME280_pressure;Samples;Min_cycle;Max_cycle;Signal;HPM_P1;HPM_P2
2021/08/14 00:00:54;;;;;;;10.48;4.85;;;;;;;;;;5055732;28;20025;-77
2021/08/14 00:03:20;;;;;;;10.25;5.40;;;;;;;;;;5055748;28;20033;-77
2021/08/14 00:05:45;;;;;;;11.40;6.20;;;;;;;;;;5055521;28;20437;-76
2021/08/14 00:08:11;;;;;;;15.18;5.90;;;;;;;;;;5055649;28;20040;-77
2021/08/14 00:10:36;;;;;;;11.60;5.10;;;;;;;;;;5057524;28;20054;-77
2021/08/14 00:13:02;;;;;;;11.32;5.82;;;;;;;;;;5037727;28;20048;-76
2021/08/14 00:15:27;;;;;;;12.18;5.93;;;;;;;;;;5055135;28;20025;-76
2021/08/14 00:17:53;;;;;;;11.68;5.30;;;;;;;;;;5055574;28;20394;-76
2021/08/14 00:20:18;;;;;;;14.25;5.90;;;;;;;;;;5055509;28;20031;-77
2021/08/14 00:22:44;;;;;;;8.65;5.55;;;;;;;;;;5055475;28;20029;-76
2021/08/14 00:25:10;;;;;;;10.23;6.05;;;;;;;;;;5054871;28;20021;-76
2021/08/14 00:27:35;;;;;;;7.65;5.32;;;;;;;;;;5055255;28;20394;-76
2021/08/14 00:30:01;;;;;;;12.63;6.10;;;;;;;;;;5055125;28;20048;-77
2021/08/14 00:32:26;;;;;;;8.30;5.70;;;;;;;;;;5054836;28;20025;-77
2021/08/14 00:34:52;;;;;;;10.85;6.35;;;;;;;;;;5054950;28;20044;-78
2021/08/14 00:37:17;;;;;;;8.15;5.57;;;;;;;;;;5055106;28;20056;-77
2021/08/14 00:39:43;;;;;;;10.25;5.78;;;;;;;;;;5054774;28;20124;-76
2021/08/14 00:42:08;;;;;;;11.60;6.18;;;;;;;;;;5036863;28;20063;-76
2021/08/14 00:44:37;;;;;;;12.52;5.97;;;;;;;;;;5054786;28;20029;-77
2021/08/14 00:47:03;;;;;;;11.60;6.10;;;;;;;;;;5054637;28;20387;-78
2021/08/14 00:49:28;;;;;;;11.40;6.20;;;;;;;;;;5054882;28;20029;-77
2021/08/14 00:51:54;;;;;;;10.50;6.30;;;;;;;;;;5054690;28;20035;-77
2021/08/14 00:54:19;;;;;;;9.20;6.18;;;;;;;;;;5054420;28;20037;-77
2021/08/14 00:56:46;;;;;;;9.40;5.95;;;;;;;;;;5054522;28;20036;-78
2021/08/14 00:59:11;;;;;;;8.30;6.22;;;;;;;;;;5054807;28;20111;-76
2021/08/14 01:01:37;;;;;;;13.00;5.35;;;;;;;;;;5054819;28;20570;-77
2021/08/14 01:04:02;;;;;;;9.45;6.15;;;;;;;;;;5055025;28;20092;-78
2021/08/14 01:06:28;;;;;;;10.27;5.97;;;;;;;;;;5054464;28;20387;-77
2021/08/14 01:08:55;;;;;;;12.40;6.22;;;;;;;;;;5054584;28;20371;-77
2021/08/14 01:11:21;;;;;;;13.77;5.95;;;;;;;;;;5053768;28;20067;-77
2021/08/14 01:13:47;;;;;;;11.00;6.40;;;;;;;;;;5054754;28;20028;-77
2021/08/14 01:16:12;;;;;;;11.38;6.05;;;;;;;;;;5054772;28;20029;-78
2021/08/14 01:18:41;;;;;;;12.57;6.47;;;;;;;;;;5054533;28;20032;-78
2021/08/14 01:21:09;;;;;;;11.95;6.68;;;;;;;;;;5054348;28;20043;-77
2021/08/14 01:23:34;;;;;;;11.27;6.43;;;;;;;;;;5054469;28;20463;-77
2021/08/14 01:26:04;;;;;;;9.27;6.30;;;;;;;;;;5054495;28;20043;-77
2021/08/14 01:28:30;;;;;;;10.57;6.20;;;;;;;;;;5054726;28;20108;-77
2021/08/14 01:30:56;;;;;;;10.82;6.30;;;;;;;;;;5054751;28;20029;-77
2021/08/14 01:33:21;;;;;;;11.38;6.35;;;;;;;;;;5053914;28;20116;-77
2021/08/14 01:35:47;;;;;;;11.52;5.90;;;;;;;;;;5036315;28;20442;-77
2021/08/14 01:38:12;;;;;;;9.85;5.80;;;;;;;;;;5054239;28;20165;-76
2021/08/14 01:40:38;;;;;;;11.07;6.97;;;;;;;;;;5054067;28;20475;-78
2021/08/14 01:43:04;;;;;;;9.32;6.57;;;;;;;;;;5054018;28;20475;-77
2021/08/14 01:45:29;;;;;;;10.02;6.82;;;;;;;;;;5054098;28;20119;-76
2021/08/14 01:47:55;;;;;;;10.88;6.50;;;;;;;;;;5054192;28;20112;-77
2021/08/14 01:50:20;;;;;;;10.50;7.20;;;;;;;;;;5054610;28;20111;-78
2021/08/14 01:52:46;;;;;;;13.20;7.85;;;;;;;;;;5054033;28;20043;-77
2021/08/14 01:55:11;;;;;;;12.75;7.68;;;;;;;;;;5053833;28;20021;-76
2021/08/14 01:57:37;;;;;;;9.98;7.07;;;;;;;;;;5053499;28;20037;-76
2021/08/14 02:00:03;;;;;;;9.98;7.45;;;;;;;;;;5053626;28;20029;-77
2021/08/14 02:02:29;;;;;;;13.25;7.70;;;;;;;;;;5053517;28;20399;-77
2021/08/14 02:04:55;;;;;;;10.48;7.20;;;;;;;;;;5053623;28;20483;-76
2021/08/14 02:07:20;;;;;;;15.07;7.70;;;;;;;;;;5053498;28;20048;-78
2021/08/14 02:09:46;;;;;;;11.95;8.57;;;;;;;;;;5053505;28;20044;-77
2021/08/14 02:12:11;;;;;;;12.95;8.75;;;;;;;;;;5053504;28;20036;-76
2021/08/14 02:14:37;;;;;;;15.38;8.32;;;;;;;;;;5053648;28;20035;-77
2021/08/14 02:17:02;;;;;;;13.73;9.57;;;;;;;;;;5052945;28;20517;-77
2021/08/14 02:19:28;;;;;;;17.40;9.43;;;;;;;;;;5053272;28;20078;-77
2021/08/14 02:21:53;;;;;;;17.60;9.05;;;;;;;;;;5053585;28;20029;-76
2021/08/14 02:24:19;;;;;;;12.73;8.70;;;;;;;;;;5053337;28;20028;-76
2021/08/14 02:26:44;;;;;;;13.38;8.52;;;;;;;;;;5052658;28;20064;-78
2021/08/14 02:29:10;;;;;;;16.05;9.45;;;;;;;;;;5053156;28;20025;-76
2021/08/14 02:31:36;;;;;;;17.02;9.65;;;;;;;;;;5053169;28;20036;-76
2021/08/14 02:34:01;;;;;;;15.40;9.38;;;;;;;;;;5052959;28;20576;-77
2021/08/14 02:36:27;;;;;;;14.77;9.73;;;;;;;;;;5052990;28;20399;-76
2021/08/14 02:38:52;;;;;;;15.13;8.80;;;;;;;;;;5034830;28;20064;-76
2021/08/14 02:41:18;;;;;;;13.05;8.50;;;;;;;;;;5053065;28;20035;-77
2021/08/14 02:43:44;;;;;;;13.55;9.48;;;;;;;;;;5052984;28;20047;-77
2021/08/14 02:46:09;;;;;;;17.85;9.93;;;;;;;;;;5052637;28;20033;-77
2021/08/14 02:48:35;;;;;;;17.60;9.60;;;;;;;;;;5052946;28;20116;-76
2021/08/14 02:51:00;;;;;;;18.83;9.80;;;;;;;;;;5052481;28;20057;-77
2021/08/14 02:53:26;;;;;;;13.18;9.13;;;;;;;;;;5052844;28;20443;-75
2021/08/14 02:55:51;;;;;;;14.48;9.27;;;;;;;;;;5052656;28;20033;-76
2021/08/14 02:58:18;;;;;;;18.88;9.30;;;;;;;;;;5052685;28;20033;-76
2021/08/14 03:00:43;;;;;;;14.10;8.63;;;;;;;;;;5052331;28;20511;-78
2021/08/14 03:03:09;;;;;;;14.35;8.80;;;;;;;;;;5052867;28;20060;-77
2021/08/14 03:05:34;;;;;;;13.68;9.48;;;;;;;;;;5052592;28;20060;-77
2021/08/14 03:08:00;;;;;;;17.63;9.57;;;;;;;;;;5052215;28;20120;-77
2021/08/14 03:10:26;;;;;;;15.95;9.82;;;;;;;;;;5052645;28;20364;-77
2021/08/14 03:12:51;;;;;;;14.15;9.40;;;;;;;;;;5052659;28;20040;-77
2021/08/14 03:15:17;;;;;;;18.58;10.40;;;;;;;;;;5052222;28;20028;-75
2021/08/14 03:17:42;;;;;;;15.07;10.20;;;;;;;;;;5052377;28;20047;-75
2021/08/14 03:20:10;;;;;;;16.55;10.52;;;;;;;;;;5052648;28;20028;-77
2021/08/14 03:22:36;;;;;;;14.90;9.18;;;;;;;;;;5052456;28;20039;-77
2021/08/14 03:25:02;;;;;;;18.05;9.38;;;;;;;;;;5052273;28;20111;-76
2021/08/14 03:27:27;;;;;;;16.05;9.70;;;;;;;;;;5052325;28;20074;-78
2021/08/14 03:29:53;;;;;;;15.55;9.55;;;;;;;;;;5052104;28;20027;-76
2021/08/14 03:32:19;;;;;;;16.20;10.77;;;;;;;;;;5051984;28;20025;-77
2021/08/14 03:34:44;;;;;;;17.67;10.90;;;;;;;;;;5051525;28;20243;-77
2021/08/14 03:37:10;;;;;;;19.90;11.23;;;;;;;;;;5052063;28;20127;-78
2021/08/14 03:39:35;;;;;;;17.00;11.07;;;;;;;;;;5034104;28;20021;-77
2021/08/14 03:42:01;;;;;;;21.38;11.18;;;;;;;;;;5051980;28;20036;-77
2021/08/14 03:44:27;;;;;;;16.38;10.32;;;;;;;;;;5052072;28;20067;-77
2021/08/14 03:46:52;;;;;;;17.33;11.20;;;;;;;;;;5051978;28;20033;-78
2021/08/14 03:49:18;;;;;;;17.23;11.45;;;;;;;;;;5052189;28;20029;-77
2021/08/14 03:51:43;;;;;;;17.38;12.43;;;;;;;;;;5051939;28;20025;-78
2021/08/14 03:54:09;;;;;;;21.30;12.68;;;;;;;;;;5051765;28;20087;-76
2021/08/14 03:56:34;;;;;;;22.20;12.15;;;;;;;;;;5051718;28;20439;-77
2021/08/14 03:59:00;;;;;;;18.83;11.15;;;;;;;;;;5051672;28;20083;-76
2021/08/14 04:01:25;;;;;;;23.55;12.50;;;;;;;;;;5051630;28;20032;-77
2021/08/14 04:03:51;;;;;;;21.02;13.25;;;;;;;;;;5051701;28;20530;-78
2021/08/14 04:06:16;;;;;;;22.08;13.63;;;;;;;;;;5051491;28;20060;-77
2021/08/14 04:08:41;;;;;;;22.77;14.13;;;;;;;;;;5033966;28;20368;-78
2021/08/14 04:11:07;;;;;;;22.73;12.60;;;;;;;;;;5051985;28;20453;-78
2021/08/14 04:13:33;;;;;;;21.90;12.63;;;;;;;;;;5051963;28;20040;-78
2021/08/14 04:15:59;;;;;;;17.08;12.07;;;;;;;;;;5051559;28;20175;-77
2021/08/14 04:18:24;;;;;;;23.35;14.25;;;;;;;;;;5051614;28;20029;-77
2021/08/14 04:20:50;;;;;;;23.13;14.98;;;;;;;;;;5051564;28;20079;-78
2021/08/14 04:23:15;;;;;;;27.27;15.15;;;;;;;;;;5051715;28;20032;-77
2021/08/14 04:25:41;;;;;;;26.73;14.40;;;;;;;;;;5051523;28;20120;-77
2021/08/14 04:28:06;;;;;;;35.72;16.65;;;;;;;;;;5051781;28;20035;-77
2021/08/14 04:30:32;;;;;;;32.90;17.90;;;;;;;;;;5051997;28;20351;-78
2021/08/14 04:32:57;;;;;;;26.27;17.65;;;;;;;;;;5051684;28;20120;-77
2021/08/14 04:35:23;;;;;;;25.98;14.80;;;;;;;;;;5051439;28;20139;-78
2021/08/14 04:37:49;;;;;;;31.08;17.20;;;;;;;;;;5051278;28;20444;-77
2021/08/14 04:40:15;;;;;;;31.35;16.20;;;;;;;;;;5051481;28;20551;-77
2021/08/14 04:42:41;;;;;;;31.63;15.95;;;;;;;;;;5051314;28;20087;-77
2021/08/14 04:45:07;;;;;;;25.52;15.20;;;;;;;;;;5052118;28;20025;-77
2021/08/14 04:47:32;;;;;;;24.55;13.70;;;;;;;;;;5054983;28;20028;-77
2021/08/14 04:49:58;;;;;;;26.85;14.27;;;;;;;;;;5055164;28;20032;-78
2021/08/14 04:52:23;;;;;;;24.63;14.02;;;;;;;;;;5055003;28;20056;-78
2021/08/14 04:54:49;;;;;;;23.15;13.23;;;;;;;;;;5055381;28;20079;-77
2021/08/14 04:57:15;;;;;;;18.73;12.95;;;;;;;;;;5054842;28;20033;-78
2021/08/14 04:59:40;;;;;;;29.55;14.75;;;;;;;;;;5055002;28;20033;-77
2021/08/14 05:02:06;;;;;;;22.67;14.25;;;;;;;;;;5054887;28;20490;-77
2021/08/14 05:04:32;;;;;;;24.15;13.65;;;;;;;;;;5054951;28;20036;-77
2021/08/14 05:06:59;;;;;;;24.67;14.60;;;;;;;;;;5054368;28;20044;-78
2021/08/14 05:09:24;;;;;;;22.65;12.35;;;;;;;;;;5054756;28;20115;-77
2021/08/14 05:11:49;;;;;;;17.85;10.57;;;;;;;;;;5054478;28;20547;-76
2021/08/14 05:14:15;;;;;;;17.45;9.80;;;;;;;;;;5054483;28;20071;-77
2021/08/14 05:16:41;;;;;;;18.48;10.13;;;;;;;;;;5054442;28;20056;-78
2021/08/14 05:19:09;;;;;;;13.80;8.30;;;;;;;;;;5054525;28;20115;-77
2021/08/14 05:21:35;;;;;;;12.55;5.95;;;;;;;;;;5036313;28;20029;-76
2021/08/14 05:24:01;;;;;;;7.70;5.80;;;;;;;;;;5054702;28;20033;-77
2021/08/14 05:26:26;;;;;;;13.77;6.40;;;;;;;;;;5054266;28;20032;-76
2021/08/14 05:28:52;;;;;;;26.67;6.45;;;;;;;;;;5054333;28;20025;-77
2021/08/14 05:31:17;;;;;;;7.72;4.72;;;;;;;;;;5054346;28;20407;-78
2021/08/14 05:33:43;;;;;;;5.88;3.88;;;;;;;;;;5054353;28;20057;-78
2021/08/14 05:36:09;;;;;;;5.95;4.15;;;;;;;;;;5054496;28;20037;-78
2021/08/14 05:38:35;;;;;;;9.45;4.03;;;;;;;;;;5054459;28;20402;-78
2021/08/14 05:41:00;;;;;;;5.78;3.20;;;;;;;;;;5053927;28;20037;-78
2021/08/14 05:43:26;;;;;;;4.68;3.40;;;;;;;;;;5054010;28;20029;-79
2021/08/14 05:45:51;;;;;;;5.75;2.85;;;;;;;;;;5053932;28;20059;-78
2021/08/14 05:48:17;;;;;;;8.02;2.90;;;;;;;;;;5054145;28;20086;-78
2021/08/14 05:50:43;;;;;;;4.43;2.67;;;;;;;;;;5055120;28;20033;-77
2021/08/14 05:53:09;;;;;;;3.22;2.30;;;;;;;;;;5036844;28;20395;-77
2021/08/14 05:55:35;;;;;;;4.90;2.65;;;;;;;;;;5053283;28;20044;-77
2021/08/14 05:58:00;;;;;;;2.90;2.30;;;;;;;;;;5053798;28;20032;-78
2021/08/14 06:00:26;;;;;;;5.18;2.30;;;;;;;;;;5053909;28;20032;-77
2021/08/14 06:02:51;;;;;;;2.70;2.30;;;;;;;;;;5054050;28;20063;-78
2021/08/14 06:05:17;;;;;;;4.18;2.17;;;;;;;;;;5053874;28;20025;-79
2021/08/14 06:07:42;;;;;;;3.03;2.28;;;;;;;;;;5054133;28;20032;-78
2021/08/14 06:10:09;;;;;;;4.18;2.00;;;;;;;;;;5053636;28;20372;-80
2021/08/14 06:12:34;;;;;;;3.20;2.20;;;;;;;;;;5054323;28;20042;-77
2021/08/14 06:15:00;;;;;;;2.45;2.15;;;;;;;;;;5053258;28;20032;-78
2021/08/14 06:17:25;;;;;;;2.67;1.92;;;;;;;;;;5053416;28;20052;-78
2021/08/14 06:19:51;;;;;;;3.22;2.05;;;;;;;;;;5053303;28;20036;-78
2021/08/14 06:22:16;;;;;;;3.67;2.30;;;;;;;;;;5054351;28;20380;-78
2021/08/14 06:24:42;;;;;;;4.55;2.80;;;;;;;;;;5053445;28;20037;-78
2021/08/14 06:27:07;;;;;;;3.75;2.20;;;;;;;;;;5052980;28;20457;-77
2021/08/14 06:29:33;;;;;;;3.65;2.17;;;;;;;;;;5053570;28;20515;-78
2021/08/14 06:31:59;;;;;;;3.00;2.35;;;;;;;;;;5053261;28;20391;-78
2021/08/14 06:34:24;;;;;;;2.63;2.40;;;;;;;;;;5052861;28;20049;-77
2021/08/14 06:36:50;;;;;;;4.32;2.05;;;;;;;;;;5052790;28;20033;-77
2021/08/14 06:39:15;;;;;;;3.42;2.38;;;;;;;;;;5053141;28;20071;-77
2021/08/14 06:41:41;;;;;;;5.05;2.30;;;;;;;;;;5052994;28;20436;-78
2021/08/14 06:44:06;;;;;;;4.35;2.53;;;;;;;;;;5052792;28;20032;-79
2021/08/14 06:46:32;;;;;;;2.70;2.20;;;;;;;;;;5052670;28;20111;-80
2021/08/14 06:48:59;;;;;;;3.78;2.28;;;;;;;;;;5034597;28;20029;-78
2021/08/14 06:51:24;;;;;;;5.93;2.40;;;;;;;;;;5052526;28;20031;-78
2021/08/14 06:53:50;;;;;;;9.30;2.70;;;;;;;;;;5052767;28;20021;-77
2021/08/14 06:56:16;;;;;;;6.38;2.53;;;;;;;;;;5052636;28;20488;-79
2021/08/14 06:58:41;;;;;;;3.45;2.30;;;;;;;;;;5053042;28;20475;-77
2021/08/14 07:01:07;;;;;;;3.30;2.10;;;;;;;;;;5052722;28;20020;-77
2021/08/14 07:03:33;;;;;;;2.95;2.10;;;;;;;;;;5052705;28;20025;-77
2021/08/14 07:05:59;;;;;;;7.53;2.47;;;;;;;;;;5052278;28;20067;-78
2021/08/14 07:08:24;;;;;;;2.90;2.20;;;;;;;;;;5051937;28;20348;-78
2021/08/14 07:10:50;;;;;;;2.97;1.92;;;;;;;;;;5052532;28;20033;-79
2021/08/14 07:13:15;;;;;;;4.13;1.88;;;;;;;;;;5052647;28;20040;-77
2021/08/14 07:15:41;;;;;;;3.53;2.03;;;;;;;;;;5052123;28;20025;-77
2021/08/14 07:18:07;;;;;;;2.80;2.13;;;;;;;;;;5052196;28;20077;-77
2021/08/14 07:20:32;;;;;;;3.53;2.00;;;;;;;;;;5052426;28;20021;-77
2021/08/14 07:22:58;;;;;;;2.83;2.00;;;;;;;;;;5052175;28;20032;-78
2021/08/14 07:25:23;;;;;;;2.60;2.10;;;;;;;;;;5052108;28;20398;-78
2021/08/14 07:27:49;;;;;;;4.35;2.30;;;;;;;;;;5051990;28;20432;-77
2021/08/14 07:30:15;;;;;;;4.68;1.85;;;;;;;;;;5051823;28;20039;-78
2021/08/14 07:32:40;;;;;;;2.80;2.00;;;;;;;;;;5052258;28;20035;-79
2021/08/14 07:35:06;;;;;;;2.42;1.83;;;;;;;;;;5054271;28;20056;-79
2021/08/14 07:37:32;;;;;;;4.65;1.92;;;;;;;;;;5053681;28;20036;-79
2021/08/14 07:40:01;;;;;;;1.95;1.75;;;;;;;;;;5036799;28;20526;-81
2021/08/14 07:42:26;;;;;;;4.78;2.47;;;;;;;;;;5053106;28;20029;-78
2021/08/14 07:44:52;;;;;;;3.97;1.88;;;;;;;;;;5035889;28;20434;-77
2021/08/14 07:47:19;;;;;;;3.70;2.08;;;;;;;;;;5051589;28;20527;-78
2021/08/14 07:49:45;;;;;;;5.05;2.10;;;;;;;;;;5051433;28;20039;-78
2021/08/14 07:52:10;;;;;;;2.92;1.80;;;;;;;;;;5051205;28;20399;-78
2021/08/14 07:54:36;;;;;;;1.70;1.60;;;;;;;;;;5051328;28;20029;-78
2021/08/14 07:57:01;;;;;;;1.95;1.60;;;;;;;;;;5051115;28;20052;-78
2021/08/14 07:59:27;;;;;;;2.92;1.80;;;;;;;;;;5051907;28;20040;-79
2021/08/14 08:01:53;;;;;;;5.07;2.38;;;;;;;;;;5036521;28;20040;-79
2021/08/14 08:04:18;;;;;;;2.13;1.85;;;;;;;;;;5054826;28;20025;-83
2021/08/14 08:06:44;;;;;;;4.90;2.63;;;;;;;;;;5055288;28;20033;-80
2021/08/14 08:09:09;;;;;;;2.75;1.50;;;;;;;;;;5034026;28;20032;-77
2021/08/14 08:11:35;;;;;;;2.90;1.85;;;;;;;;;;5033890;28;20072;-79
2021/08/14 08:14:01;;;;;;;3.17;1.73;;;;;;;;;;5051495;28;20160;-79
2021/08/14 08:16:26;;;;;;;6.18;1.67;;;;;;;;;;5051595;28;20037;-78
2021/08/14 08:18:52;;;;;;;3.10;1.50;;;;;;;;;;5051720;28;20025;-78
2021/08/14 08:21:17;;;;;;;2.03;1.55;;;;;;;;;;5055435;28;20035;-78
2021/08/14 08:23:43;;;;;;;5.30;1.70;;;;;;;;;;5055784;28;20029;-78
2021/08/14 08:26:08;;;;;;;1.98;1.50;;;;;;;;;;5055335;28;20144;-78
2021/08/14 08:28:34;;;;;;;7.88;7.07;;;;;;;;;;5055214;28;20044;-79
2021/08/14 08:30:59;;;;;;;4.03;1.60;;;;;;;;;;5037263;28;20029;-79
2021/08/14 08:33:25;;;;;;;1.50;1.40;;;;;;;;;;5055413;28;20046;-78
2021/08/14 08:35:51;;;;;;;3.10;1.42;;;;;;;;;;5055186;28;20045;-79
2021/08/14 08:38:16;;;;;;;3.95;1.52;;;;;;;;;;5055315;28;20063;-78
2021/08/14 08:40:42;;;;;;;2.42;1.40;;;;;;;;;;5055216;28;20017;-78
2021/08/14 08:43:08;;;;;;;4.28;1.50;;;;;;;;;;5055619;28;20025;-77
2021/08/14 08:45:34;;;;;;;6.82;1.50;;;;;;;;;;5055125;28;20086;-77
2021/08/14 08:48:02;;;;;;;1.90;1.23;;;;;;;;;;5055068;28;20491;-78
2021/08/14 08:50:28;;;;;;;1.95;1.30;;;;;;;;;;5054619;28;20088;-79
2021/08/14 08:52:54;;;;;;;4.60;1.50;;;;;;;;;;5037092;28;20021;-78
2021/08/14 08:55:21;;;;;;;6.18;1.50;;;;;;;;;;5055555;28;20142;-78
2021/08/14 08:57:46;;;;;;;5.47;1.30;;;;;;;;;;5054694;28;20535;-77
2021/08/14 09:00:15;;;;;;;3.20;1.38;;;;;;;;;;5054880;28;20112;-77
2021/08/14 09:02:42;;;;;;;2.15;1.80;;;;;;;;;;5054862;28;20028;-77
2021/08/14 09:05:19;;;;;;;2.60;1.83;;;;;;;;;;5054915;28;20115;-77
2021/08/14 09:07:46;;;;;;;3.80;1.48;;;;;;;;;;5054951;28;20104;-80
2021/08/14 09:10:13;;;;;;;1.50;1.40;;;;;;;;;;5054288;28;20037;-79
2021/08/14 09:12:41;;;;;;;1.83;1.58;;;;;;;;;;5054775;28;20025;-78
2021/08/14 09:15:07;;;;;;;2.55;1.50;;;;;;;;;;5054355;28;20168;-78
2021/08/14 09:17:33;;;;;;;7.93;2.17;;;;;;;;;;5054124;28;20068;-78
2021/08/14 09:20:06;;;;;;;1.77;1.50;;;;;;;;;;5054214;28;20510;-78
2021/08/14 09:22:31;;;;;;;1.77;1.63;;;;;;;;;;5054363;28;20407;-78
2021/08/14 09:25:09;;;;;;;1.90;1.50;;;;;;;;;;5054516;28;20027;-78
2021/08/14 09:27:47;;;;;;;8.23;1.60;;;;;;;;;;5054372;28;20110;-78
2021/08/14 09:30:12;;;;;;;4.13;1.55;;;;;;;;;;5054187;28;20029;-78
2021/08/14 09:32:38;;;;;;;2.15;1.50;;;;;;;;;;5053181;28;20051;-78
2021/08/14 09:35:04;;;;;;;3.85;1.35;;;;;;;;;;5053820;28;20061;-77
2021/08/14 09:37:39;;;;;;;3.05;1.42;;;;;;;;;;5053811;28;20045;-77
2021/08/14 09:40:05;;;;;;;3.60;1.83;;;;;;;;;;5053903;28;20459;-78
2021/08/14 09:42:31;;;;;;;3.13;1.55;;;;;;;;;;5054968;28;20037;-78
2021/08/14 09:45:11;;;;;;;7.05;1.98;;;;;;;;;;5054053;28;20048;-78
2021/08/14 09:47:36;;;;;;;4.47;1.80;;;;;;;;;;5053837;28;20029;-77
2021/08/14 09:50:02;;;;;;;4.95;1.65;;;;;;;;;;5053447;28;20036;-77
2021/08/14 09:52:27;;;;;;;6.63;1.90;;;;;;;;;;5053149;28;20120;-78
2021/08/14 09:54:54;;;;;;;3.00;1.60;;;;;;;;;;5053478;28;20043;-79
2021/08/14 09:57:20;;;;;;;2.75;1.50;;;;;;;;;;5053645;28;20259;-77
2021/08/14 09:59:46;;;;;;;3.85;1.58;;;;;;;;;;5053322;28;20029;-77
2021/08/14 10:02:21;;;;;;;2.35;1.50;;;;;;;;;;5053214;28;20060;-77
2021/08/14 10:04:47;;;;;;;3.95;1.52;;;;;;;;;;5053389;28;20445;-77
2021/08/14 10:07:16;;;;;;;10.70;1.67;;;;;;;;;;5054774;28;20514;-77
2021/08/14 10:09:42;;;;;;;5.18;1.63;;;;;;;;;;5053036;28;20446;-78
2021/08/14 10:12:09;;;;;;;1.52;1.42;;;;;;;;;;5052999;28;20031;-77
2021/08/14 10:14:35;;;;;;;1.58;1.40;;;;;;;;;;5053141;28;20487;-78
2021/08/14 10:17:00;;;;;;;2.05;1.55;;;;;;;;;;5053694;28;20049;-77
2021/08/14 10:19:26;;;;;;;1.60;1.50;;;;;;;;;;5052695;28;20017;-78
2021/08/14 10:21:55;;;;;;;2.30;1.50;;;;;;;;;;5053174;28;20033;-77
2021/08/14 10:24:21;;;;;;;3.17;1.50;;;;;;;;;;5053058;28;20545;-82
2021/08/14 10:26:46;;;;;;;3.15;2.30;;;;;;;;;;5052946;28;20028;-79
2021/08/14 10:29:16;;;;;;;2.92;1.88;;;;;;;;;;5053220;28;20039;-79
2021/08/14 10:31:43;;;;;;;4.53;1.60;;;;;;;;;;5052757;28;20473;-79
2021/08/14 10:34:12;;;;;;;1.50;1.40;;;;;;;;;;5052869;28;20469;-76
2021/08/14 10:36:41;;;;;;;6.03;1.80;;;;;;;;;;5034651;28;20462;-77
2021/08/14 10:39:20;;;;;;;3.17;1.60;;;;;;;;;;5052287;28;20028;-78
2021/08/14 10:41:49;;;;;;;1.70;1.50;;;;;;;;;;5052719;28;20568;-78
2021/08/14 10:44:14;;;;;;;3.08;1.52;;;;;;;;;;5051723;28;20086;-78
2021/08/14 10:46:51;;;;;;;2.38;1.60;;;;;;;;;;5052346;28;20345;-78
2021/08/14 10:49:21;;;;;;;1.88;1.35;;;;;;;;;;5053277;28;20029;-78
2021/08/14 10:51:52;;;;;;;3.47;1.67;;;;;;;;;;5052766;28;20024;-78
2021/08/14 10:54:35;;;;;;;5.18;1.60;;;;;;;;;;5052970;28;20041;-78
2021/08/14 10:57:02;;;;;;;4.35;1.65;;;;;;;;;;5052846;28;20041;-79
2021/08/14 10:59:40;;;;;;;10.73;1.77;;;;;;;;;;5052601;28;20391;-78
2021/08/14 11:04:35;;;;;;;1.80;1.67;;;;;;;;;;5052090;28;20060;-78
2021/08/14 11:07:19;;;;;;;2.13;1.65;;;;;;;;;;5052584;28;20032;-79
2021/08/14 11:09:53;;;;;;;3.90;1.67;;;;;;;;;;5053002;28;20028;-79
2021/08/14 11:12:37;;;;;;;10.40;3.63;;;;;;;;;;5052797;28;20090;-79
2021/08/14 11:15:22;;;;;;;4.57;1.70;;;;;;;;;;5052282;28;20029;-78
2021/08/14 11:17:49;;;;;;;5.28;1.70;;;;;;;;;;5052018;28;20032;-78
2021/08/14 11:20:20;;;;;;;4.50;1.70;;;;;;;;;;5051856;28;20032;-78
2021/08/14 11:22:47;;;;;;;4.00;1.75;;;;;;;;;;5052299;28;20028;-77
2021/08/14 11:25:32;;;;;;;3.28;1.70;;;;;;;;;;5051490;28;20033;-78
2021/08/14 11:28:00;;;;;;;5.10;1.60;;;;;;;;;;5051775;28;20020;-79
2021/08/14 11:30:30;;;;;;;2.47;1.60;;;;;;;;;;5052036;28;20264;-78
2021/08/14 11:32:56;;;;;;;3.30;1.50;;;;;;;;;;5051584;28;20055;-78
2021/08/14 11:35:23;;;;;;;2.60;1.55;;;;;;;;;;5051598;28;20508;-78
2021/08/14 11:37:51;;;;;;;2.28;1.70;;;;;;;;;;5051749;28;20132;-78
2021/08/14 11:40:22;;;;;;;2.58;1.52;;;;;;;;;;5051912;28;20063;-77
2021/08/14 11:42:58;;;;;;;2.58;1.70;;;;;;;;;;5051752;28;20029;-77
2021/08/14 11:45:23;;;;;;;1.58;1.30;;;;;;;;;;5033629;28;20021;-77
2021/08/14 11:47:55;;;;;;;1.90;1.77;;;;;;;;;;5051668;28;20025;-78
2021/08/14 11:50:20;;;;;;;2.25;1.63;;;;;;;;;;5051777;28;20114;-78
2021/08/14 11:52:47;;;;;;;3.53;2.28;;;;;;;;;;5051808;28;20063;-78
2021/08/14 11:55:12;;;;;;;3.72;1.60;;;;;;;;;;5054013;28;20032;-77
2021/08/14 11:57:39;;;;;;;4.80;1.67;;;;;;;;;;5055992;28;20041;-79
2021/08/14 12:00:17;;;;;;;3.55;1.70;;;;;;;;;;5055868;28;20025;-77
2021/08/14 12:02:43;;;;;;;16.58;2.60;;;;;;;;;;5056192;28;20507;-78
2021/08/14 12:05:08;;;;;;;9.65;2.17;;;;;;;;;;5055638;28;20021;-78
2021/08/14 12:07:34;;;;;;;1.98;1.70;;;;;;;;;;5055983;28;20036;-78
2021/08/14 12:09:59;;;;;;;3.20;1.65;;;;;;;;;;5055717;28;20021;-77
2021/08/14 12:12:26;;;;;;;3.30;1.48;;;;;;;;;;5055481;28;20452;-77
2021/08/14 12:14:52;;;;;;;4.20;1.85;;;;;;;;;;5055317;28;20083;-79
2021/08/14 12:17:17;;;;;;;5.20;1.80;;;;;;;;;;5055712;28;20045;-77
2021/08/14 12:19:47;;;;;;;1.88;1.48;;;;;;;;;;5055505;28;20040;-78
2021/08/14 12:22:13;;;;;;;2.58;1.63;;;;;;;;;;5055524;28;20463;-78
2021/08/14 12:24:40;;;;;;;6.65;1.77;;;;;;;;;;5055071;28;20442;-78
2021/08/14 12:27:24;;;;;;;2.80;1.50;;;;;;;;;;5037262;28;20083;-77
2021/08/14 12:29:49;;;;;;;1.90;1.52;;;;;;;;;;5055186;28;20028;-78
2021/08/14 12:32:15;;;;;;;3.50;1.58;;;;;;;;;;5054942;28;20028;-77
2021/08/14 12:34:42;;;;;;;3.58;1.70;;;;;;;;;;5054993;28;20052;-77
2021/08/14 12:37:10;;;;;;;3.30;1.80;;;;;;;;;;5054640;28;20032;-77
2021/08/14 12:40:01;;;;;;;2.70;1.55;;;;;;;;;;5054708;28;20135;-77
2021/08/14 12:42:28;;;;;;;3.30;1.60;;;;;;;;;;5053530;28;20037;-77
2021/08/14 12:44:54;;;;;;;3.72;1.50;;;;;;;;;;5055112;28;20106;-79
2021/08/14 12:47:32;;;;;;;2.03;1.60;;;;;;;;;;5054638;28;20520;-77
2021/08/14 12:50:10;;;;;;;15.60;2.40;;;;;;;;;;5054650;28;20025;-77
2021/08/14 12:52:36;;;;;;;18.55;2.47;;;;;;;;;;5036499;28;20182;-76
2021/08/14 12:55:01;;;;;;;5.65;2.15;;;;;;;;;;5054594;28;20033;-79
2021/08/14 12:57:27;;;;;;;6.75;1.90;;;;;;;;;;5054245;28;20067;-79
2021/08/14 12:59:52;;;;;;;2.72;1.65;;;;;;;;;;5054415;28;20056;-79
2021/08/14 13:02:18;;;;;;;3.30;1.70;;;;;;;;;;5054623;28;20041;-79
2021/08/14 13:04:43;;;;;;;2.63;1.63;;;;;;;;;;5054178;28;20086;-78
2021/08/14 13:07:09;;;;;;;3.75;1.80;;;;;;;;;;5052807;28;20032;-78
2021/08/14 13:09:35;;;;;;;2.58;1.65;;;;;;;;;;5036064;28;20479;-78
2021/08/14 13:12:02;;;;;;;8.25;1.85;;;;;;;;;;5054094;28;20263;-78
2021/08/14 13:14:27;;;;;;;3.38;1.80;;;;;;;;;;5037069;28;20124;-78
2021/08/14 13:16:54;;;;;;;2.15;1.90;;;;;;;;;;5054421;28;20116;-78
2021/08/14 13:19:20;;;;;;;14.10;2.00;;;;;;;;;;5054196;28;20140;-77
2021/08/14 13:21:47;;;;;;;7.35;2.10;;;;;;;;;;5054023;28;20082;-77
2021/08/14 13:24:12;;;;;;;2.80;1.77;;;;;;;;;;5054010;28;20090;-78
2021/08/14 13:26:38;;;;;;;4.60;1.90;;;;;;;;;;5053936;28;20046;-79
2021/08/14 13:29:03;;;;;;;5.10;1.88;;;;;;;;;;5036037;28;20029;-78
2021/08/14 13:31:29;;;;;;;5.38;2.00;;;;;;;;;;5054003;28;20028;-78
2021/08/14 13:33:55;;;;;;;2.78;2.10;;;;;;;;;;5053307;28;20064;-78
2021/08/14 13:36:20;;;;;;;3.47;1.90;;;;;;;;;;5053882;28;20036;-79
2021/08/14 13:38:45;;;;;;;4.25;1.98;;;;;;;;;;5054108;28;20506;-77
2021/08/14 13:41:11;;;;;;;5.95;2.00;;;;;;;;;;5054076;28;20028;-78
2021/08/14 13:43:37;;;;;;;4.97;2.00;;;;;;;;;;5053506;28;20167;-78
2021/08/14 13:46:03;;;;;;;7.55;1.98;;;;;;;;;;5053403;28;20029;-78
2021/08/14 13:48:28;;;;;;;5.18;2.15;;;;;;;;;;5035312;28;20036;-78
2021/08/14 13:50:54;;;;;;;3.30;1.67;;;;;;;;;;5035546;28;20387;-78
2021/08/14 13:53:19;;;;;;;9.88;2.08;;;;;;;;;;5053449;28;20071;-79
2021/08/14 13:55:45;;;;;;;14.10;2.25;;;;;;;;;;5053626;28;20029;-78
2021/08/14 13:58:10;;;;;;;3.28;1.55;;;;;;;;;;5035310;28;20482;-78
2021/08/14 14:00:36;;;;;;;4.93;2.05;;;;;;;;;;5053846;28;20032;-78
2021/08/14 14:03:02;;;;;;;3.35;2.00;;;;;;;;;;5053243;28;20091;-79
2021/08/14 14:05:27;;;;;;;1.98;1.70;;;;;;;;;;5053094;28;20044;-79
2021/08/14 14:07:53;;;;;;;3.55;1.67;;;;;;;;;;5053421;28;20044;-78
2021/08/14 14:10:18;;;;;;;33.20;3.63;;;;;;;;;;5035118;28;20033;-77
2021/08/14 14:12:44;;;;;;;5.25;1.80;;;;;;;;;;5034946;28;20036;-78
2021/08/14 14:15:10;;;;;;;6.43;1.75;;;;;;;;;;5053142;28;20025;-78
2021/08/14 14:17:36;;;;;;;8.68;2.20;;;;;;;;;;5034721;28;20112;-77
2021/08/14 14:20:02;;;;;;;2.80;2.05;;;;;;;;;;5034726;28;20167;-78
2021/08/14 14:22:27;;;;;;;8.93;2.00;;;;;;;;;;5053255;28;20127;-79
2021/08/14 14:24:53;;;;;;;2.72;2.05;;;;;;;;;;5052944;28;20533;-79
2021/08/14 14:27:19;;;;;;;4.40;1.90;;;;;;;;;;5052699;28;20115;-77
2021/08/14 14:29:44;;;;;;;2.35;1.90;;;;;;;;;;5053067;28;20117;-79
2021/08/14 14:32:10;;;;;;;3.15;2.03;;;;;;;;;;5053224;28;20033;-78
2021/08/14 14:34:35;;;;;;;4.90;2.25;;;;;;;;;;5052544;28;20068;-79